Newark On Trent, United Kingdom
Current Conditions -  °F | °C
As of 4:50 AM on Saturday 29 Nov 2014 (Local Time) from EGYD Reporting Station
Overcast Overcast  
Wind Chill: 43°   Ceiling: 10000
Heat Index: 48°   Visibility: 1.9mi
Dew Point: 48°   Wind: 12mph
Humidity: 100%   Direction: 90°E
Pressure: 29.83"   Gusts: NA
Location:  53.07°N, 0.81°W
Report Text: EGYD 290450Z AUTO 09010KT 3100 // SCT011/// OVC100/// 09/09 Q1010
Loading
Personal Weather Stations






























Interactive Weather Map New forecast layout! Learn more

10-Day Weather Forecast

Advertisements
Track Severe Weather on mobile